Time,TemperatureF,DewpointF,PressureIn,WindDirection,WindDirectionDegrees,WindSpeedMPH,WindSpeedGustMPH,Humidity,HourlyPrecipIn,Conditions,Clouds,dailyrainin,SoftwareType,DateUTC
2013-06-26 00:00:00,73.1,68.7,29.75,South,171,6.0,8.0,86,0.00,RA,,0.00,WeatherDisplay:10.37,2013-06-26 05:00:00,
2013-06-26 00:10:00,72.9,68.5,29.75,South,178,7.0,10.0,86,0.00,,,0.00,WeatherDisplay:10.37,2013-06-26 05:10:00,
2013-06-26 00:20:00,72.7,68.6,29.74,South,182,6.0,9.0,87,0.00,,,0.00,WeatherDisplay:10.37,2013-06-26 05:20:00,
2013-06-26 00:25:00,72.6,68.6,29.74,South,177,6.0,9.0,87,0.00,,,0.00,WeatherDisplay:10.37,2013-06-26 05:25:00,
2013-06-26 00:30:00,72.6,68.5,29.74,SSE,168,5.0,9.0,87,0.00,,,0.00,WeatherDisplay:10.37,2013-06-26 05:30:00,
2013-06-26 00:35:00,72.5,68.7,29.73,SSE,166,5.0,7.0,88,0.00,,,0.00,WeatherDisplay:10.37,2013-06-26 05:35:00,
2013-06-26 00:40:00,72.4,68.6,29.73,South,169,6.0,7.0,88,0.00,,,0.00,WeatherDisplay:10.37,2013-06-26 05:40:00,
2013-06-26 00:50:00,72.3,68.6,29.73,South,171,5.0,7.0,88,0.00,,,0.00,WeatherDisplay:10.37,2013-06-26 05:50:00,
2013-06-26 00:55:00,72.1,68.7,29.73,South,172,3.0,6.0,89,0.00,,,0.00,WeatherDisplay:10.37,2013-06-26 05:55:00,
2013-06-26 01:00:00,72.0,68.6,29.72,South,183,3.0,6.0,89,0.00,,,0.00,WeatherDisplay:10.37,2013-06-26 06:00:00,
2013-06-26 01:05:00,72.0,68.9,29.72,SSW,206,3.0,5.0,90,0.00,,,0.00,WeatherDisplay:10.37,2013-06-26 06:05:00,
2013-06-26 01:10:00,72.2,69.1,29.72,SSW,205,7.0,14.0,90,0.03,RA,,0.03,WeatherDisplay:10.37,2013-06-26 06:10:00,
2013-06-26 01:15:00,72.1,69.3,29.71,South,181,9.0,14.0,91,0.07,RA,,0.07,WeatherDisplay:10.37,2013-06-26 06:15:00,
2013-06-26 01:25:00,72.8,70.0,29.71,SSE,160,6.0,10.0,91,0.09,RA,,0.09,WeatherDisplay:10.37,2013-06-26 06:25:00,
2013-06-26 01:30:00,72.7,69.9,29.71,SSE,167,7.0,9.0,91,0.09,,,0.09,WeatherDisplay:10.37,2013-06-26 06:30:00,
2013-06-26 01:35:00,72.6,70.1,29.70,SSE,167,6.0,9.0,92,0.09,,,0.09,WeatherDisplay:10.37,2013-06-26 06:35:00,
2013-06-26 01:40:00,72.5,70.1,29.71,South,171,7.0,12.0,92,0.09,,,0.09,WeatherDisplay:10.37,2013-06-26 06:40:00,
2013-06-26 01:45:00,73.0,70.6,29.71,South,172,6.0,12.0,92,0.09,,,0.09,WeatherDisplay:10.37,2013-06-26 06:45:00,
2013-06-26 01:55:00,73.4,70.3,29.72,SSE,163,7.0,9.0,90,0.11,RA,,0.11,WeatherDisplay:10.37,2013-06-26 06:55:00,
2013-06-26 02:00:00,73.4,70.3,29.71,SSE,161,7.0,12.0,90,0.11,,,0.11,WeatherDisplay:10.37,2013-06-26 07:00:00,
2013-06-26 02:05:00,73.2,70.5,29.71,SSE,157,7.0,9.0,91,0.11,,,0.11,WeatherDisplay:10.37,2013-06-26 07:05:00,
2013-06-26 02:10:00,73.1,70.3,29.71,SSE,154,6.0,10.0,91,0.08,,,0.11,WeatherDisplay:10.37,2013-06-26 07:10:00,
2013-06-26 02:15:00,73.0,70.2,29.71,SSE,157,6.0,9.0,91,0.04,,,0.11,WeatherDisplay:10.37,2013-06-26 07:15:00,
2013-06-26 02:20:00,73.0,70.2,29.71,South,170,6.0,10.0,91,0.02,,,0.11,WeatherDisplay:10.37,2013-06-26 07:20:00,
2013-06-26 02:30:00,72.9,70.4,29.71,South,174,7.0,12.0,92,0.02,,,0.11,WeatherDisplay:10.37,2013-06-26 07:30:00,
2013-06-26 02:35:00,72.9,70.4,29.70,SSE,167,8.0,13.0,92,0.02,,,0.11,WeatherDisplay:10.37,2013-06-26 07:35:00,
2013-06-26 02:45:00,72.7,70.6,29.69,South,169,6.0,12.0,93,0.02,,,0.11,WeatherDisplay:10.37,2013-06-26 07:45:00,
2013-06-26 02:50:00,72.6,70.5,29.70,SSE,166,7.0,10.0,93,0.00,,,0.11,WeatherDisplay:10.37,2013-06-26 07:50:00,
2013-06-26 03:00:00,72.6,70.5,29.68,SSE,159,7.0,12.0,93,0.00,,,0.11,WeatherDisplay:10.37,2013-06-26 08:00:00,
2013-06-26 03:05:00,72.5,70.4,29.68,SSE,161,8.0,13.0,93,0.00,,,0.11,WeatherDisplay:10.37,2013-06-26 08:05:00,
2013-06-26 03:10:00,72.5,70.4,29.67,SSE,166,8.0,12.0,93,0.00,,,0.11,WeatherDisplay:10.37,2013-06-26 08:10:00,
2013-06-26 03:15:00,72.4,70.3,29.68,SSE,162,7.0,10.0,93,0.00,,,0.11,WeatherDisplay:10.37,2013-06-26 08:15:00,
2013-06-26 03:20:00,72.4,70.3,29.68,South,170,7.0,12.0,93,0.00,,,0.11,WeatherDisplay:10.37,2013-06-26 08:20:00,
2013-06-26 03:25:00,72.4,70.6,29.68,South,190,7.0,10.0,94,0.00,,,0.11,WeatherDisplay:10.37,2013-06-26 08:25:00,
2013-06-26 03:30:00,72.5,70.4,29.68,South,180,8.0,12.0,93,0.00,,,0.11,WeatherDisplay:10.37,2013-06-26 08:30:00,
2013-06-26 03:40:00,72.6,70.5,29.68,South,189,8.0,13.0,93,0.00,,,0.11,WeatherDisplay:10.37,2013-06-26 08:40:00,
2013-06-26 03:45:00,72.7,70.6,29.67,SSW,196,9.0,13.0,93,0.00,,,0.11,WeatherDisplay:10.37,2013-06-26 08:45:00,
2013-06-26 03:50:00,72.8,70.7,29.66,SSW,193,9.0,15.0,93,0.00,,,0.11,WeatherDisplay:10.37,2013-06-26 08:50:00,
2013-06-26 04:00:00,72.8,70.7,29.67,South,183,8.0,14.0,93,0.00,,,0.11,WeatherDisplay:10.37,2013-06-26 09:00:00,
2013-06-26 04:05:00,72.9,70.7,29.67,SSW,195,8.0,12.0,93,0.00,,,0.11,WeatherDisplay:10.37,2013-06-26 09:05:00,
2013-06-26 04:10:00,72.9,70.8,29.67,SSW,201,8.0,12.0,93,0.00,,,0.11,WeatherDisplay:10.37,2013-06-26 09:10:00,
2013-06-26 04:15:00,72.9,70.8,29.67,SSW,196,8.0,12.0,93,0.00,,,0.11,WeatherDisplay:10.37,2013-06-26 09:15:00,
2013-06-26 04:20:00,73.0,70.9,29.68,SSW,195,8.0,12.0,93,0.00,,,0.11,WeatherDisplay:10.37,2013-06-26 09:20:00,
2013-06-26 04:25:00,73.0,71.2,29.68,SSW,193,8.0,12.0,94,0.00,,,0.11,WeatherDisplay:10.37,2013-06-26 09:25:00,
2013-06-26 04:30:00,73.1,71.0,29.68,South,190,7.0,13.0,93,0.00,,,0.11,WeatherDisplay:10.37,2013-06-26 09:30:00,
2013-06-26 04:40:00,73.1,71.0,29.68,SSW,192,6.0,12.0,93,0.00,,,0.11,WeatherDisplay:10.37,2013-06-26 09:40:00,
2013-06-26 04:45:00,73.1,71.3,29.69,South,191,7.0,12.0,94,0.00,,,0.11,WeatherDisplay:10.37,2013-06-26 09:45:00,
2013-06-26 04:55:00,73.1,71.3,29.68,SSW,204,8.0,12.0,94,0.00,,,0.11,WeatherDisplay:10.37,2013-06-26 09:55:00,
2013-06-26 05:00:00,73.1,71.3,29.69,SSW,210,6.0,12.0,94,0.00,,,0.11,WeatherDisplay:10.37,2013-06-26 10:00:00,
2013-06-26 05:05:00,73.1,71.3,29.69,SSW,213,7.0,10.0,94,0.00,,,0.11,WeatherDisplay:10.37,2013-06-26 10:05:00,
2013-06-26 05:10:00,73.1,71.2,29.70,SSW,211,6.0,9.0,94,0.00,,,0.11,WeatherDisplay:10.37,2013-06-26 10:10:00,
2013-06-26 05:15:00,73.0,71.2,29.71,SSW,205,7.0,10.0,94,0.00,,,0.11,WeatherDisplay:10.37,2013-06-26 10:15:00,
2013-06-26 05:20:00,73.0,71.2,29.70,SSW,207,7.0,12.0,94,0.00,,,0.11,WeatherDisplay:10.37,2013-06-26 10:20:00,
2013-06-26 05:30:00,72.9,71.1,29.71,SW,217,7.0,12.0,94,0.00,,,0.11,WeatherDisplay:10.37,2013-06-26 10:30:00,
2013-06-26 05:35:00,72.9,71.1,29.72,WSW,257,7.0,12.0,94,0.00,,,0.11,WeatherDisplay:10.37,2013-06-26 10:35:00,
2013-06-26 05:40:00,72.9,71.1,29.72,West,280,6.0,10.0,94,0.00,,,0.11,WeatherDisplay:10.37,2013-06-26 10:40:00,
2013-06-26 05:45:00,72.8,70.7,29.71,WNW,285,3.0,8.0,93,0.00,,,0.11,WeatherDisplay:10.37,2013-06-26 10:45:00,
2013-06-26 05:55:00,72.3,69.2,29.71,WNW,293,2.0,7.0,90,0.00,,,0.11,WeatherDisplay:10.37,2013-06-26 10:55:00,
2013-06-26 06:05:00,71.8,69.3,29.72,West,269,5.0,7.0,92,0.00,,,0.11,WeatherDisplay:10.37,2013-06-26 11:05:00,
2013-06-26 06:10:00,71.6,68.5,29.70,West,266,2.0,7.0,90,0.00,,,0.11,WeatherDisplay:10.37,2013-06-26 11:10:00,
2013-06-26 06:20:00,71.2,68.1,29.69,NNW,332,1.0,5.0,90,0.00,,,0.11,WeatherDisplay:10.37,2013-06-26 11:20:00,
2013-06-26 06:25:00,71.0,68.2,29.69,WNW,302,1.0,2.0,91,0.00,,,0.11,WeatherDisplay:10.37,2013-06-26 11:25:00,
2013-06-26 06:30:00,70.7,68.2,29.68,SE,132,2.0,3.0,92,0.00,,,0.11,WeatherDisplay:10.37,2013-06-26 11:30:00,
2013-06-26 06:35:00,70.3,67.9,29.67,SE,132,2.0,4.0,92,0.01,RA,,0.12,WeatherDisplay:10.37,2013-06-26 11:35:00,
2013-06-26 06:40:00,70.1,68.0,29.67,SE,138,7.0,10.0,93,0.02,RA,,0.13,WeatherDisplay:10.37,2013-06-26 11:40:00,
2013-06-26 06:45:00,69.5,67.1,29.66,SSE,160,10.0,14.0,92,0.02,RA,,0.13,WeatherDisplay:10.37,2013-06-26 11:45:00,
2013-06-26 06:55:00,68.9,66.5,29.68,South,177,6.0,7.0,92,0.03,RA,,0.14,WeatherDisplay:10.37,2013-06-26 11:55:00,
2013-06-26 07:00:00,68.9,66.5,29.69,West,280,7.0,10.0,92,0.04,RA,,0.15,WeatherDisplay:10.37,2013-06-26 12:00:00,
2013-06-26 07:05:00,68.7,66.3,29.69,WNW,286,6.0,9.0,92,0.05,RA,,0.16,WeatherDisplay:10.37,2013-06-26 12:05:00,
2013-06-26 07:10:00,68.4,66.3,29.68,West,269,5.0,10.0,93,0.06,RA,,0.17,WeatherDisplay:10.37,2013-06-26 12:10:00,
2013-06-26 07:15:00,68.1,66.0,29.67,SW,234,5.0,9.0,93,0.07,RA,,0.18,WeatherDisplay:10.37,2013-06-26 12:15:00,
2013-06-26 07:20:00,68.1,66.0,29.66,SW,222,5.0,9.0,93,0.09,RA,,0.20,WeatherDisplay:10.37,2013-06-26 12:20:00,
2013-06-26 07:30:00,68.1,66.0,29.68,WSW,241,3.0,8.0,93,0.11,RA,,0.22,WeatherDisplay:10.37,2013-06-26 12:30:00,
2013-06-26 07:35:00,68.3,65.9,29.68,WSW,238,6.0,8.0,92,0.11,RA,,0.23,WeatherDisplay:10.37,2013-06-26 12:35:00,
2013-06-26 07:40:00,68.3,65.9,29.68,SW,221,6.0,9.0,92,0.11,RA,,0.24,WeatherDisplay:10.37,2013-06-26 12:40:00,
2013-06-26 07:50:00,68.0,65.9,29.70,SW,218,7.0,14.0,93,0.12,RA,,0.26,WeatherDisplay:10.37,2013-06-26 12:50:00,
2013-06-26 07:55:00,67.9,66.1,29.70,SW,226,7.0,12.0,94,0.12,RA,,0.26,WeatherDisplay:10.37,2013-06-26 12:55:00,
2013-06-26 08:05:00,67.7,65.9,29.69,SW,227,7.0,13.0,94,0.11,RA,,0.27,WeatherDisplay:10.37,2013-06-26 13:05:00,
2013-06-26 08:10:00,67.7,65.9,29.70,SW,219,7.0,12.0,94,0.11,RA,,0.28,WeatherDisplay:10.37,2013-06-26 13:10:00,
2013-06-26 08:20:00,67.8,66.0,29.68,SSW,195,10.0,14.0,94,0.09,RA,,0.29,WeatherDisplay:10.37,2013-06-26 13:20:00,
2013-06-26 08:25:00,67.8,66.0,29.67,South,174,12.0,17.0,94,0.09,RA,,0.29,WeatherDisplay:10.37,2013-06-26 13:25:00,
2013-06-26 08:35:00,67.7,65.9,29.66,South,178,7.0,12.0,94,0.06,,,0.29,WeatherDisplay:10.37,2013-06-26 13:35:00,
2013-06-26 08:40:00,67.8,66.3,29.67,South,184,6.0,12.0,95,0.05,,,0.29,WeatherDisplay:10.37,2013-06-26 13:40:00,
2013-06-26 08:50:00,68.0,66.2,29.69,WSW,244,8.0,12.0,94,0.03,,,0.29,WeatherDisplay:10.37,2013-06-26 13:50:00,
2013-06-26 08:55:00,68.2,66.4,29.70,West,260,8.0,12.0,94,0.03,,,0.29,WeatherDisplay:10.37,2013-06-26 13:55:00,
2013-06-26 09:00:00,68.5,66.7,29.70,West,263,5.0,8.0,94,0.02,,,0.29,WeatherDisplay:10.37,2013-06-26 14:00:00,
2013-06-26 09:05:00,68.8,67.3,29.70,West,269,3.0,6.0,95,0.02,,,0.29,WeatherDisplay:10.37,2013-06-26 14:05:00,
2013-06-26 09:10:00,69.1,67.3,29.70,West,271,2.0,6.0,94,0.01,,,0.29,WeatherDisplay:10.37,2013-06-26 14:10:00,
2013-06-26 09:15:00,69.5,67.7,29.72,NW,318,5.0,7.0,94,0.01,,,0.29,WeatherDisplay:10.37,2013-06-26 14:15:00,
2013-06-26 09:20:00,69.8,67.7,29.72,North,355,5.0,7.0,93,0.00,,,0.29,WeatherDisplay:10.37,2013-06-26 14:20:00,
2013-06-26 09:25:00,69.8,68.0,29.72,North,359,2.0,5.0,94,0.00,,,0.29,WeatherDisplay:10.37,2013-06-26 14:25:00,
2013-06-26 09:30:00,70.1,68.0,29.71,North,351,5.0,6.0,93,0.00,,,0.29,WeatherDisplay:10.37,2013-06-26 14:30:00,
2013-06-26 09:40:00,71.1,69.0,29.72,North,8,3.0,7.0,93,0.00,,,0.29,WeatherDisplay:10.37,2013-06-26 14:40:00,
2013-06-26 09:45:00,71.7,69.6,29.72,North,1,3.0,7.0,93,0.00,,,0.29,WeatherDisplay:10.37,2013-06-26 14:45:00,
2013-06-26 09:55:00,73.0,69.2,29.72,North,356,5.0,7.0,88,0.00,,,0.29,WeatherDisplay:10.37,2013-06-26 14:55:00,
2013-06-26 10:00:00,73.0,69.2,29.71,North,3,3.0,6.0,88,0.00,,,0.29,WeatherDisplay:10.37,2013-06-26 15:00:00,
2013-06-26 10:10:00,73.7,69.6,29.71,North,4,2.0,4.0,87,0.00,,,0.29,WeatherDisplay:10.37,2013-06-26 15:10:00,
2013-06-26 10:15:00,74.4,71.0,29.71,NNW,340,1.0,5.0,89,0.00,,,0.29,WeatherDisplay:10.37,2013-06-26 15:15:00,
2013-06-26 10:20:00,74.8,71.0,29.71,NW,316,1.0,4.0,88,0.00,,,0.29,WeatherDisplay:10.37,2013-06-26 15:20:00,
2013-06-26 10:25:00,75.0,70.9,29.72,NW,319,2.0,4.0,87,0.00,,,0.29,WeatherDisplay:10.37,2013-06-26 15:25:00,
2013-06-26 10:30:00,75.0,69.5,29.72,North,360,2.0,4.0,83,0.00,,,0.29,WeatherDisplay:10.37,2013-06-26 15:30:00,
2013-06-26 10:35:00,75.0,70.5,29.72,North,3,2.0,5.0,86,0.00,,,0.29,WeatherDisplay:10.37,2013-06-26 15:35:00,
2013-06-26 10:45:00,75.0,70.5,29.72,North,359,2.0,4.0,86,0.00,,,0.29,WeatherDisplay:10.37,2013-06-26 15:45:00,
2013-06-26 10:50:00,75.2,70.0,29.72,NW,313,2.0,3.0,84,0.00,,,0.29,WeatherDisplay:10.37,2013-06-26 15:50:00,
2013-06-26 11:00:00,75.9,70.4,29.72,NW,311,1.0,3.0,83,0.00,,,0.29,WeatherDisplay:10.37,2013-06-26 16:00:00,
2013-06-26 11:05:00,76.4,71.3,29.72,WNW,293,1.0,4.0,84,0.00,,,0.29,WeatherDisplay:10.37,2013-06-26 16:05:00,
2013-06-26 11:10:00,77.0,70.8,29.72,WNW,293,1.0,3.0,81,0.00,,,0.29,WeatherDisplay:10.37,2013-06-26 16:10:00,
2013-06-26 11:20:00,77.9,72.0,29.72,NW,326,2.0,5.0,82,0.00,,,0.29,WeatherDisplay:10.37,2013-06-26 16:20:00,
2013-06-26 11:25:00,78.1,72.5,29.73,NNW,342,1.0,3.0,83,0.00,,,0.29,WeatherDisplay:10.37,2013-06-26 16:25:00,
2013-06-26 11:30:00,78.4,72.4,29.73,NW,305,1.0,4.0,82,0.00,,,0.29,WeatherDisplay:10.37,2013-06-26 16:30:00,
2013-06-26 11:35:00,79.0,73.4,29.73,NW,307,1.0,4.0,83,0.00,,,0.29,WeatherDisplay:10.37,2013-06-26 16:35:00,
2013-06-26 11:40:00,79.4,73.0,29.73,NW,311,1.0,4.0,81,0.00,,,0.29,WeatherDisplay:10.37,2013-06-26 16:40:00,
2013-06-26 11:45:00,79.4,72.7,29.72,NW,308,1.0,5.0,80,0.00,,,0.29,WeatherDisplay:10.37,2013-06-26 16:45:00,
2013-06-26 11:50:00,79.3,73.3,29.73,NW,312,2.0,5.0,82,0.00,,,0.29,WeatherDisplay:10.37,2013-06-26 16:50:00,
2013-06-26 11:55:00,79.2,73.2,29.72,NW,309,2.0,6.0,82,0.00,,,0.29,WeatherDisplay:10.37,2013-06-26 16:55:00,
2013-06-26 12:05:00,78.5,72.9,29.72,WNW,293,2.0,4.0,83,0.00,,,0.29,WeatherDisplay:10.37,2013-06-26 17:05:00,
2013-06-26 12:10:00,78.5,72.9,29.71,WNW,287,3.0,5.0,83,0.00,,,0.29,WeatherDisplay:10.37,2013-06-26 17:10:00,
2013-06-26 12:15:00,79.2,73.5,29.71,West,281,2.0,4.0,83,0.00,,,0.29,WeatherDisplay:10.37,2013-06-26 17:15:00,
2013-06-26 12:20:00,79.5,73.5,29.71,West,270,3.0,6.0,82,0.00,,,0.29,WeatherDisplay:10.37,2013-06-26 17:20:00,
2013-06-26 12:25:00,79.8,73.5,29.71,West,265,3.0,5.0,81,0.00,,,0.29,WeatherDisplay:10.37,2013-06-26 17:25:00,
2013-06-26 12:30:00,80.4,74.4,29.69,West,261,2.0,5.0,82,0.00,,,0.29,WeatherDisplay:10.37,2013-06-26 17:30:00,
2013-06-26 12:35:00,81.4,74.2,29.69,SW,228,2.0,12.0,79,0.00,,,0.29,WeatherDisplay:10.37,2013-06-26 17:35:00,
2013-06-26 12:45:00,82.7,75.1,29.69,SW,220,2.0,6.0,78,0.00,,,0.29,WeatherDisplay:10.37,2013-06-26 17:45:00,
2013-06-26 12:50:00,82.8,75.6,29.68,WSW,242,3.0,7.0,79,0.00,,,0.29,WeatherDisplay:10.37,2013-06-26 17:50:00,
2013-06-26 13:00:00,82.1,74.6,29.68,SW,225,5.0,9.0,78,0.00,,,0.29,WeatherDisplay:10.37,2013-06-26 18:00:00,
2013-06-26 13:05:00,82.0,74.5,29.68,SW,223,3.0,8.0,78,0.00,,,0.29,WeatherDisplay:10.37,2013-06-26 18:05:00,
2013-06-26 13:10:00,82.4,74.8,29.68,SW,214,2.0,8.0,78,0.00,,,0.29,WeatherDisplay:10.37,2013-06-26 18:10:00,
2013-06-26 13:20:00,83.2,74.8,29.69,SSW,209,3.0,6.0,76,0.00,,,0.29,WeatherDisplay:10.37,2013-06-26 18:20:00,
2013-06-26 13:30:00,84.1,75.3,29.71,SSW,199,2.0,4.0,75,0.00,,,0.29,WeatherDisplay:10.37,2013-06-26 18:30:00,
2013-06-26 13:35:00,84.2,74.6,29.71,WSW,251,3.0,5.0,73,0.00,,,0.29,WeatherDisplay:10.37,2013-06-26 18:35:00,
2013-06-26 13:45:00,84.2,75.4,29.70,West,280,2.0,5.0,75,0.00,,,0.29,WeatherDisplay:10.37,2013-06-26 18:45:00,
2013-06-26 13:50:00,83.7,74.1,29.71,NW,315,3.0,5.0,73,0.00,,,0.29,WeatherDisplay:10.37,2013-06-26 18:50:00,
2013-06-26 14:00:00,83.3,74.9,29.71,NW,307,1.0,3.0,76,0.00,,,0.29,WeatherDisplay:10.37,2013-06-26 19:00:00,
2013-06-26 14:10:00,83.1,74.4,29.71,WNW,285,5.0,6.0,75,0.00,,,0.29,WeatherDisplay:10.37,2013-06-26 19:10:00,
2013-06-26 14:20:00,83.0,75.4,29.71,NNW,329,2.0,5.0,78,0.00,,,0.29,WeatherDisplay:10.37,2013-06-26 19:20:00,
2013-06-26 14:25:00,83.1,74.4,29.71,WNW,300,2.0,4.0,75,0.00,,,0.29,WeatherDisplay:10.37,2013-06-26 19:25:00,
2013-06-26 14:30:00,83.6,75.7,29.70,West,269,1.0,4.0,77,0.00,,,0.29,WeatherDisplay:10.37,2013-06-26 19:30:00,
2013-06-26 14:35:00,84.3,74.3,29.70,West,281,2.0,4.0,72,0.00,,,0.29,WeatherDisplay:10.37,2013-06-26 19:35:00,
2013-06-26 14:40:00,84.3,74.3,29.70,West,271,3.0,5.0,72,0.00,,,0.29,WeatherDisplay:10.37,2013-06-26 19:40:00,
2013-06-26 14:45:00,84.5,74.9,29.69,WSW,258,1.0,4.0,73,0.00,,,0.29,WeatherDisplay:10.37,2013-06-26 19:45:00,
2013-06-26 14:55:00,85.0,75.0,29.69,West,274,2.0,4.0,72,0.00,,,0.29,WeatherDisplay:10.37,2013-06-26 19:55:00,
2013-06-26 15:00:00,85.1,75.4,29.69,West,272,1.0,5.0,73,0.00,,,0.29,WeatherDisplay:10.37,2013-06-26 20:00:00,
2013-06-26 15:05:00,85.3,74.8,29.69,WSW,257,2.0,5.0,71,0.00,,,0.29,WeatherDisplay:10.37,2013-06-26 20:05:00,
2013-06-26 15:10:00,85.3,75.2,29.69,WSW,254,1.0,4.0,72,0.00,,,0.29,WeatherDisplay:10.37,2013-06-26 20:10:00,
2013-06-26 15:15:00,85.6,76.4,29.69,West,270,2.0,6.0,74,0.00,,,0.29,WeatherDisplay:10.37,2013-06-26 20:15:00,
2013-06-26 15:25:00,85.0,74.1,29.69,WNW,295,1.0,4.0,70,0.00,,,0.29,WeatherDisplay:10.37,2013-06-26 20:25:00,
2013-06-26 15:30:00,85.4,74.9,29.69,WNW,298,2.0,6.0,71,0.00,,,0.29,WeatherDisplay:10.37,2013-06-26 20:30:00,
2013-06-26 15:40:00,85.1,74.7,29.69,West,281,2.0,5.0,71,0.00,,,0.29,WeatherDisplay:10.37,2013-06-26 20:40:00,
2013-06-26 15:45:00,84.7,73.8,29.69,NW,315,1.0,3.0,70,0.00,,,0.29,WeatherDisplay:10.37,2013-06-26 20:45:00,
2013-06-26 15:50:00,84.9,75.3,29.69,North,353,1.0,3.0,73,0.00,,,0.29,WeatherDisplay:10.37,2013-06-26 20:50:00,
2013-06-26 16:00:00,84.3,74.7,29.68,NW,325,1.0,4.0,73,0.00,,,0.29,WeatherDisplay:10.37,2013-06-26 21:00:00,
2013-06-26 16:05:00,84.3,76.7,29.68,WNW,287,2.0,3.0,78,0.00,,,0.29,WeatherDisplay:10.37,2013-06-26 21:05:00,
2013-06-26 16:15:00,84.5,74.5,29.69,WNW,300,1.0,2.0,72,0.00,,,0.29,WeatherDisplay:10.37,2013-06-26 21:15:00,
2013-06-26 16:20:00,85.1,75.9,29.69,West,270,1.0,3.0,74,0.00,,,0.29,WeatherDisplay:10.37,2013-06-26 21:20:00,
2013-06-26 16:30:00,85.2,75.5,29.69,NW,313,1.0,4.0,73,0.00,,,0.29,WeatherDisplay:10.37,2013-06-26 21:30:00,
2013-06-26 16:35:00,85.2,75.6,29.69,WNW,295,1.0,3.0,73,0.00,,,0.29,WeatherDisplay:10.37,2013-06-26 21:35:00,
2013-06-26 16:40:00,85.7,75.7,29.69,WNW,283,0.0,4.0,72,0.00,,,0.29,WeatherDisplay:10.37,2013-06-26 21:40:00,
2013-06-26 16:50:00,86.2,77.3,29.68,NW,305,3.0,6.0,75,0.00,,,0.29,WeatherDisplay:10.37,2013-06-26 21:50:00,
2013-06-26 17:00:00,85.5,76.3,29.69,WNW,290,5.0,6.0,74,0.00,,,0.29,WeatherDisplay:10.37,2013-06-26 22:00:00,
2013-06-26 17:05:00,85.0,76.2,29.69,WNW,289,3.0,5.0,75,0.00,,,0.29,WeatherDisplay:10.37,2013-06-26 22:05:00,
2013-06-26 17:10:00,84.6,76.6,29.69,WNW,293,2.0,4.0,77,0.00,,,0.29,WeatherDisplay:10.37,2013-06-26 22:10:00,
2013-06-26 17:15:00,84.0,76.0,29.69,WNW,297,2.0,6.0,77,0.00,,,0.29,WeatherDisplay:10.37,2013-06-26 22:15:00,
2013-06-26 17:20:00,84.0,76.4,29.69,WNW,298,2.0,3.0,78,0.00,,,0.29,WeatherDisplay:10.37,2013-06-26 22:20:00,
2013-06-26 17:25:00,83.8,75.4,29.68,WNW,294,3.0,5.0,76,0.00,,,0.29,WeatherDisplay:10.37,2013-06-26 22:25:00,
2013-06-26 17:35:00,83.6,75.6,29.69,WNW,289,3.0,5.0,77,0.00,,,0.29,WeatherDisplay:10.37,2013-06-26 22:35:00,
2013-06-26 17:40:00,83.4,76.2,29.69,WNW,294,2.0,4.0,79,0.00,,,0.29,WeatherDisplay:10.37,2013-06-26 22:40:00,
2013-06-26 17:45:00,83.4,76.2,29.68,WNW,298,2.0,4.0,79,0.00,,,0.29,WeatherDisplay:10.37,2013-06-26 22:45:00,
2013-06-26 17:50:00,83.5,76.7,29.68,WNW,291,2.0,4.0,80,0.00,,,0.29,WeatherDisplay:10.37,2013-06-26 22:50:00,
2013-06-26 18:00:00,84.2,77.0,29.68,WNW,288,3.0,6.0,79,0.00,,,0.29,WeatherDisplay:10.37,2013-06-26 23:00:00,
2013-06-26 18:05:00,83.9,76.3,29.68,WNW,288,2.0,5.0,78,0.00,,,0.29,WeatherDisplay:10.37,2013-06-26 23:05:00,
2013-06-26 18:10:00,83.6,76.0,29.68,WNW,286,2.0,4.0,78,0.00,,,0.29,WeatherDisplay:10.37,2013-06-26 23:10:00,
2013-06-26 18:20:00,83.6,76.4,29.67,WNW,283,3.0,5.0,79,0.00,,,0.29,WeatherDisplay:10.37,2013-06-26 23:20:00,
2013-06-26 18:25:00,83.6,76.4,29.68,WNW,282,2.0,4.0,79,0.00,,,0.29,WeatherDisplay:10.37,2013-06-26 23:25:00,
2013-06-26 18:30:00,83.5,76.3,29.68,WNW,286,2.0,4.0,79,0.00,,,0.29,WeatherDisplay:10.37,2013-06-26 23:30:00,
2013-06-26 18:35:00,83.1,75.6,29.67,NW,310,2.0,5.0,78,0.00,,,0.29,WeatherDisplay:10.37,2013-06-26 23:35:00,
2013-06-26 18:40:00,83.4,76.6,29.67,NW,324,1.0,2.0,80,0.00,,,0.29,WeatherDisplay:10.37,2013-06-26 23:40:00,
2013-06-26 18:45:00,83.7,76.9,29.68,NW,312,1.0,2.0,80,0.00,,,0.29,WeatherDisplay:10.37,2013-06-26 23:45:00,
2013-06-26 18:50:00,83.7,77.2,29.67,NW,304,1.0,2.0,81,0.00,,,0.29,WeatherDisplay:10.37,2013-06-26 23:50:00,
2013-06-26 18:55:00,83.6,76.4,29.67,NW,309,1.0,2.0,79,0.00,,,0.29,WeatherDisplay:10.37,2013-06-26 23:55:00,
2013-06-26 19:00:00,83.4,76.2,29.68,NW,306,1.0,2.0,79,0.00,,,0.29,WeatherDisplay:10.37,2013-06-27 00:00:00,
2013-06-26 19:05:00,83.1,75.9,29.67,NW,305,1.0,3.0,79,0.00,,,0.29,WeatherDisplay:10.37,2013-06-27 00:05:00,
2013-06-26 19:10:00,83.0,76.1,29.67,NW,308,0.0,1.0,80,0.00,,,0.29,WeatherDisplay:10.37,2013-06-27 00:10:00,
2013-06-26 19:15:00,82.8,77.1,29.67,WNW,297,0.0,2.0,83,0.00,,,0.29,WeatherDisplay:10.37,2013-06-27 00:15:00,
2013-06-26 19:25:00,82.4,76.7,29.67,WSW,241,1.0,3.0,83,0.00,,,0.29,WeatherDisplay:10.37,2013-06-27 00:25:00,
2013-06-26 19:30:00,82.1,76.8,29.68,WSW,246,2.0,3.0,84,0.00,,,0.29,WeatherDisplay:10.37,2013-06-27 00:30:00,
2013-06-26 19:40:00,81.9,76.6,29.68,WSW,250,1.0,2.0,84,0.00,,,0.29,WeatherDisplay:10.37,2013-06-27 00:40:00,
2013-06-26 19:45:00,81.8,76.4,29.68,West,263,1.0,2.0,84,0.00,,,0.29,WeatherDisplay:10.37,2013-06-27 00:45:00,
2013-06-26 19:55:00,81.2,76.3,29.68,West,281,1.0,2.0,85,0.00,,,0.29,WeatherDisplay:10.37,2013-06-27 00:55:00,
2013-06-26 20:00:00,81.2,76.6,29.68,WNW,283,0.0,1.0,86,0.00,,,0.29,WeatherDisplay:10.37,2013-06-27 01:00:00,
2013-06-26 20:05:00,81.2,76.2,29.68,WNW,283,0.0,0.0,85,0.00,,,0.29,WeatherDisplay:10.37,2013-06-27 01:05:00,
2013-06-26 20:15:00,80.8,76.2,29.69,WNW,295,1.0,1.0,86,0.00,,,0.29,WeatherDisplay:10.37,2013-06-27 01:15:00,
2013-06-26 20:20:00,80.7,76.5,29.69,North,349,1.0,2.0,87,0.00,,,0.29,WeatherDisplay:10.37,2013-06-27 01:20:00,
2013-06-26 20:30:00,80.2,76.0,29.69,North,4,0.0,0.0,87,0.00,,,0.29,WeatherDisplay:10.37,2013-06-27 01:30:00,
2013-06-26 20:35:00,80.0,76.1,29.70,North,4,0.0,0.0,88,0.00,,,0.29,WeatherDisplay:10.37,2013-06-27 01:35:00,
2013-06-26 20:45:00,79.8,75.9,29.70,North,4,0.0,1.0,88,0.00,,,0.29,WeatherDisplay:10.37,2013-06-27 01:45:00,
2013-06-26 20:50:00,79.7,76.2,29.70,North,4,0.0,1.0,89,0.00,,,0.29,WeatherDisplay:10.37,2013-06-27 01:50:00,
2013-06-26 20:55:00,79.7,76.1,29.70,North,4,1.0,1.0,89,0.00,,,0.29,WeatherDisplay:10.37,2013-06-27 01:55:00,
2013-06-26 21:00:00,79.7,76.2,29.70,North,351,1.0,2.0,89,0.00,,,0.29,WeatherDisplay:10.37,2013-06-27 02:00:00,
2013-06-26 21:05:00,79.6,76.1,29.70,North,360,1.0,2.0,89,0.00,,,0.29,WeatherDisplay:10.37,2013-06-27 02:05:00,
2013-06-26 21:10:00,79.4,76.5,29.69,North,10,0.0,1.0,91,0.00,,,0.29,WeatherDisplay:10.37,2013-06-27 02:10:00,
2013-06-26 21:20:00,78.6,76.1,29.70,NNW,327,1.0,1.0,92,0.00,,,0.29,WeatherDisplay:10.37,2013-06-27 02:20:00,
2013-06-26 21:30:00,78.0,75.5,29.70,West,278,1.0,1.0,92,0.00,,,0.29,WeatherDisplay:10.37,2013-06-27 02:30:00,
2013-06-26 21:35:00,77.8,75.6,29.70,West,275,1.0,2.0,93,0.00,,,0.29,WeatherDisplay:10.37,2013-06-27 02:35:00,
2013-06-26 21:40:00,78.0,75.8,29.70,WNW,282,2.0,2.0,93,0.00,,,0.29,WeatherDisplay:10.37,2013-06-27 02:40:00,
2013-06-26 21:45:00,77.7,75.6,29.70,WNW,284,1.0,2.0,93,0.00,,,0.29,WeatherDisplay:10.37,2013-06-27 02:45:00,
2013-06-26 21:50:00,77.4,75.2,29.70,WNW,284,0.0,1.0,93,0.00,,,0.29,WeatherDisplay:10.37,2013-06-27 02:50:00,
2013-06-26 22:00:00,77.0,75.1,29.70,WNW,284,0.0,0.0,94,0.00,,,0.29,WeatherDisplay:10.37,2013-06-27 03:00:00,
2013-06-26 22:05:00,76.8,74.9,29.70,WNW,284,0.0,0.0,94,0.00,,,0.29,WeatherDisplay:10.37,2013-06-27 03:05:00,
2013-06-26 22:10:00,76.8,74.6,29.71,WNW,284,0.0,0.0,93,0.00,,,0.29,WeatherDisplay:10.37,2013-06-27 03:10:00,
2013-06-26 22:20:00,76.9,74.4,29.71,WNW,284,0.0,0.0,92,0.00,,,0.29,WeatherDisplay:10.37,2013-06-27 03:20:00,
2013-06-26 22:30:00,76.8,74.6,29.72,WNW,284,0.0,0.0,93,0.00,,,0.29,WeatherDisplay:10.37,2013-06-27 03:30:00,
2013-06-26 22:40:00,76.7,74.5,29.72,WNW,284,0.0,0.0,93,0.00,,,0.29,WeatherDisplay:10.37,2013-06-27 03:40:00,
2013-06-26 22:45:00,76.8,74.6,29.72,WNW,284,0.0,0.0,93,0.00,,,0.29,WeatherDisplay:10.37,2013-06-27 03:45:00,
2013-06-26 22:50:00,76.8,74.6,29.72,WNW,284,0.0,0.0,93,0.00,,,0.29,WeatherDisplay:10.37,2013-06-27 03:50:00,
2013-06-26 22:55:00,76.8,74.6,29.73,WNW,284,0.0,0.0,93,0.00,,,0.29,WeatherDisplay:10.37,2013-06-27 03:55:00,
2013-06-26 23:00:00,76.9,74.7,29.73,WNW,284,0.0,0.0,93,0.00,,,0.29,WeatherDisplay:10.37,2013-06-27 04:00:00,
2013-06-26 23:05:00,76.8,74.6,29.72,WNW,284,0.0,0.0,93,0.00,,,0.29,WeatherDisplay:10.37,2013-06-27 04:05:00,
2013-06-26 23:10:00,76.6,74.4,29.73,WNW,284,0.0,0.0,93,0.00,,,0.29,WeatherDisplay:10.37,2013-06-27 04:10:00,
2013-06-26 23:20:00,76.0,74.1,29.72,WNW,284,0.0,0.0,94,0.00,,,0.29,WeatherDisplay:10.37,2013-06-27 04:20:00,
2013-06-26 23:25:00,75.8,74.3,29.72,WNW,284,0.0,0.0,95,0.00,,,0.29,WeatherDisplay:10.37,2013-06-27 04:25:00,
2013-06-26 23:30:00,75.7,74.2,29.73,WNW,284,0.0,0.0,95,0.00,,,0.29,WeatherDisplay:10.37,2013-06-27 04:30:00,
2013-06-26 23:35:00,75.6,74.0,29.73,WNW,284,0.0,0.0,95,0.00,,,0.29,WeatherDisplay:10.37,2013-06-27 04:35:00,
2013-06-26 23:40:00,75.5,74.0,29.73,WNW,284,0.0,0.0,95,0.00,,,0.29,WeatherDisplay:10.37,2013-06-27 04:40:00,
2013-06-26 23:45:00,75.5,74.0,29.73,WNW,284,0.0,0.0,95,0.00,,,0.29,WeatherDisplay:10.37,2013-06-27 04:45:00,
2013-06-26 23:55:00,75.4,74.2,29.73,WNW,285,0.0,0.0,96,0.00,,,0.29,WeatherDisplay:10.37,2013-06-27 04:55:00,